Time,TemperatureF,DewpointF,PressureIn,WindDirection,WindDirectionDegrees,WindSpeedMPH,WindSpeedGustMPH,Humidity,HourlyPrecipIn,Conditions,Clouds,dailyrainin,SoftwareType,DateUTC
2013-04-02 00:03:00,33.0,13.0,29.85,NW,305,2.0,6.0,44,0.00,,,0.02,,2013-04-02 04:03:00,
2013-04-02 00:13:00,33.0,13.0,29.85,NW,305,2.0,6.0,44,0.00,,,0.02,,2013-04-02 04:13:00,
2013-04-02 00:23:00,33.0,14.0,29.85,NNW,333,1.0,9.0,45,0.00,,,0.02,,2013-04-02 04:23:00,
2013-04-02 00:33:00,32.0,13.0,29.86,North,5,9.0,12.0,45,0.00,,,0.01,,2013-04-02 04:33:00,
2013-04-02 00:43:00,32.0,13.0,29.86,North,5,9.0,12.0,45,0.00,,,0.01,,2013-04-02 04:43:00,
2013-04-02 00:53:00,32.0,14.0,29.87,NW,316,1.0,4.0,47,0.00,,,0.01,,2013-04-02 04:53:00,
2013-04-02 01:02:00,32.0,14.0,29.87,NNW,344,1.0,14.0,47,0.00,,,0.01,,2013-04-02 05:02:00,
2013-04-02 01:12:00,32.0,14.0,29.87,NNW,344,1.0,14.0,47,0.00,,,0.01,,2013-04-02 05:12:00,
2013-04-02 01:22:00,31.0,13.0,29.87,WNW,294,1.0,7.0,46,0.00,,,0.01,,2013-04-02 05:22:00,
2013-04-02 01:32:00,31.0,13.0,29.87,West,278,2.0,5.0,47,0.00,,,0.01,,2013-04-02 05:32:00,
2013-04-02 01:43:00,31.0,13.0,29.87,West,278,2.0,5.0,47,0.00,,,0.01,,2013-04-02 05:43:00,
2013-04-02 01:52:00,31.0,14.0,29.88,West,279,0.0,3.0,49,0.00,,,0.01,,2013-04-02 05:52:00,
2013-04-02 02:02:00,30.0,14.0,29.88,West,278,1.0,3.0,51,0.00,,,0.01,,2013-04-02 06:02:00,
2013-04-02 02:12:00,30.0,14.0,29.88,West,278,1.0,3.0,51,0.00,,,0.01,,2013-04-02 06:12:00,
2013-04-02 02:22:00,30.0,14.0,29.87,West,281,1.0,3.0,51,0.00,,,0.01,,2013-04-02 06:22:00,
2013-04-02 02:32:00,29.0,15.0,29.88,West,263,0.0,4.0,55,0.00,,,0.01,,2013-04-02 06:32:00,
2013-04-02 02:42:00,29.0,15.0,29.88,West,263,0.0,4.0,55,0.00,,,0.01,,2013-04-02 06:42:00,
2013-04-02 02:52:00,29.0,15.0,29.88,West,263,0.0,1.0,56,0.00,,,0.01,,2013-04-02 06:52:00,
2013-04-02 03:02:00,28.0,16.0,29.87,West,263,0.0,0.0,61,0.00,,,0.01,,2013-04-02 07:02:00,
2013-04-02 03:12:00,28.0,16.0,29.87,West,263,0.0,0.0,61,0.00,,,0.01,,2013-04-02 07:12:00,
2013-04-02 03:22:00,28.0,15.0,29.86,NW,308,1.0,4.0,58,0.00,,,0.01,,2013-04-02 07:22:00,
2013-04-02 03:32:00,29.0,13.0,29.86,NW,304,0.0,7.0,50,0.00,,,0.01,,2013-04-02 07:32:00,
2013-04-02 03:42:00,29.0,13.0,29.86,NW,304,0.0,7.0,50,0.00,,,0.01,,2013-04-02 07:42:00,
2013-04-02 03:53:00,30.0,13.0,29.86,NW,323,3.0,7.0,48,0.00,,,0.01,,2013-04-02 07:53:00,
2013-04-02 04:02:00,30.0,12.0,29.87,WNW,302,1.0,11.0,47,0.00,,,0.01,,2013-04-02 08:02:00,
2013-04-02 04:13:00,30.0,12.0,29.87,WNW,302,1.0,11.0,47,0.00,,,0.01,,2013-04-02 08:13:00,
2013-04-02 04:22:00,30.0,12.0,29.86,NW,304,0.0,4.0,47,0.00,,,0.01,,2013-04-02 08:22:00,
2013-04-02 04:32:00,29.0,12.0,29.87,NW,306,1.0,4.0,48,0.00,,,0.01,,2013-04-02 08:32:00,
2013-04-02 04:42:00,29.0,12.0,29.87,NW,306,1.0,4.0,48,0.00,,,0.01,,2013-04-02 08:42:00,
2013-04-02 04:52:00,30.0,13.0,29.87,West,263,0.0,5.0,48,0.00,,,0.01,,2013-04-02 08:52:00,
2013-04-02 05:02:00,30.0,13.0,29.87,WNW,300,1.0,7.0,49,0.00,,,0.01,,2013-04-02 09:02:00,
2013-04-02 05:12:00,30.0,13.0,29.87,WNW,300,1.0,7.0,49,0.00,,,0.01,,2013-04-02 09:12:00,
2013-04-02 05:22:00,29.0,12.0,29.88,West,276,1.0,6.0,49,0.00,,,0.01,,2013-04-02 09:22:00,
2013-04-02 05:32:00,29.0,12.0,29.88,NW,304,1.0,5.0,49,0.00,,,0.01,,2013-04-02 09:32:00,
2013-04-02 05:43:00,29.0,12.0,29.88,NW,304,1.0,5.0,49,0.00,,,0.01,,2013-04-02 09:43:00,
2013-04-02 05:53:00,29.0,13.0,29.88,West,274,2.0,7.0,50,0.00,,,0.01,,2013-04-02 09:53:00,
2013-04-02 06:03:00,29.0,13.0,29.89,NW,326,0.0,7.0,51,0.00,,,0.01,,2013-04-02 10:03:00,
2013-04-02 06:13:00,29.0,13.0,29.89,NW,326,0.0,7.0,51,0.00,,,0.01,,2013-04-02 10:13:00,
2013-04-02 06:23:00,28.0,13.0,29.89,NW,310,0.0,2.0,52,0.00,,,0.01,,2013-04-02 10:23:00,
2013-04-02 06:33:00,28.0,14.0,29.90,NW,312,0.0,5.0,54,0.00,,,0.01,,2013-04-02 10:33:00,
2013-04-02 06:42:00,28.0,14.0,29.90,NW,312,0.0,5.0,54,0.00,,,0.01,,2013-04-02 10:42:00,
2013-04-02 06:53:00,28.0,14.0,29.90,NW,312,0.0,3.0,56,0.00,,,0.01,,2013-04-02 10:53:00,
2013-04-02 07:02:00,28.0,15.0,29.90,WNW,298,0.0,5.0,57,0.00,,,0.01,,2013-04-02 11:02:00,
2013-04-02 07:12:00,28.0,15.0,29.90,WNW,298,0.0,5.0,57,0.00,,,0.01,,2013-04-02 11:12:00,
2013-04-02 07:22:00,28.0,16.0,29.91,North,349,0.0,5.0,59,0.00,,,0.01,,2013-04-02 11:22:00,
2013-04-02 07:33:00,28.0,16.0,29.92,WNW,302,0.0,3.0,59,0.00,,,0.01,,2013-04-02 11:33:00,
2013-04-02 07:43:00,28.0,16.0,29.92,WNW,302,0.0,3.0,59,0.00,,,0.01,,2013-04-02 11:43:00,
2013-04-02 07:53:00,28.0,16.0,29.93,NNW,334,0.0,2.0,59,0.00,,,0.01,,2013-04-02 11:53:00,
2013-04-02 08:02:00,29.0,16.0,29.93,NNE,30,2.0,4.0,59,0.00,,,0.01,,2013-04-02 12:02:00,
2013-04-02 08:12:00,29.0,16.0,29.93,NNE,30,2.0,4.0,59,0.00,,,0.01,,2013-04-02 12:12:00,
2013-04-02 08:23:00,29.0,17.0,29.93,North,5,2.0,6.0,61,0.00,,,0.01,,2013-04-02 12:23:00,
2013-04-02 08:32:00,30.0,18.0,29.95,NNW,344,3.0,10.0,60,0.00,,,0.01,,2013-04-02 12:32:00,
2013-04-02 08:42:00,30.0,18.0,29.95,NNW,344,3.0,10.0,60,0.00,,,0.01,,2013-04-02 12:42:00,
2013-04-02 08:53:00,30.0,19.0,29.95,West,273,3.0,12.0,62,0.00,,,0.01,,2013-04-02 12:53:00,
2013-04-02 09:02:00,30.0,19.0,29.96,North,5,3.0,9.0,62,0.00,,,0.01,,2013-04-02 13:02:00,
2013-04-02 09:12:00,29.0,18.0,29.96,NNW,342,0.0,11.0,63,0.00,,,0.01,,2013-04-02 13:12:00,
2013-04-02 09:22:00,29.0,18.0,29.96,NNW,342,0.0,11.0,63,0.00,,,0.01,,2013-04-02 13:22:00,
2013-04-02 09:33:00,30.0,19.0,29.96,West,270,5.0,12.0,62,0.00,,,0.01,,2013-04-02 13:33:00,
2013-04-02 09:42:00,30.0,19.0,29.96,West,270,5.0,12.0,62,0.00,,,0.01,,2013-04-02 13:42:00,
2013-04-02 09:52:00,30.0,17.0,29.96,NNW,332,5.0,13.0,59,0.00,,,0.01,,2013-04-02 13:52:00,
2013-04-02 10:02:00,31.0,19.0,29.96,WNW,301,4.0,17.0,61,0.00,,,0.01,,2013-04-02 14:02:00,
2013-04-02 10:23:00,31.0,18.0,29.96,WNW,289,4.0,14.0,59,0.00,,,0.01,,2013-04-02 14:23:00,
2013-04-02 10:32:00,32.0,17.0,29.96,SSW,201,4.0,14.0,54,0.00,,,0.01,,2013-04-02 14:32:00,
2013-04-02 10:42:00,32.0,17.0,29.96,SSW,201,4.0,14.0,54,0.00,,,0.01,,2013-04-02 14:42:00,
2013-04-02 10:52:00,32.0,15.0,29.96,North,5,7.0,18.0,48,0.00,,,0.01,,2013-04-02 14:52:00,
2013-04-02 11:02:00,32.0,15.0,29.96,NW,306,10.0,14.0,48,0.00,,,0.01,,2013-04-02 15:02:00,
2013-04-02 11:11:00,32.0,15.0,29.96,NW,306,10.0,14.0,48,0.00,,,0.01,,2013-04-02 15:11:00,
2013-04-02 11:22:00,32.0,13.0,29.96,WNW,300,5.0,24.0,45,0.00,,,0.01,,2013-04-02 15:22:00,
2013-04-02 11:33:00,33.0,12.0,29.96,West,265,5.0,18.0,42,0.00,,,0.01,,2013-04-02 15:33:00,
2013-04-02 11:43:00,33.0,12.0,29.96,West,265,5.0,18.0,42,0.00,,,0.01,,2013-04-02 15:43:00,
2013-04-02 11:58:00,33.0,11.0,29.95,North,360,6.0,22.0,39,0.00,,,0.01,,2013-04-02 15:58:00,
2013-04-02 12:04:00,34.0,12.0,29.95,North,9,10.0,18.0,40,0.00,,,0.01,,2013-04-02 16:04:00,
2013-04-02 12:13:00,34.0,12.0,29.95,North,9,10.0,18.0,40,0.00,,,0.01,,2013-04-02 16:13:00,
2013-04-02 12:24:00,34.0,13.0,29.95,NW,321,10.0,19.0,42,0.00,,,0.01,,2013-04-02 16:24:00,
2013-04-02 12:36:00,34.0,13.0,29.95,WSW,257,8.0,16.0,41,0.00,,,0.01,,2013-04-02 16:36:00,
2013-04-02 12:44:00,34.0,13.0,29.95,WSW,257,8.0,16.0,41,0.00,,,0.01,,2013-04-02 16:44:00,
2013-04-02 12:53:00,35.0,13.0,29.95,NNE,24,11.0,17.0,39,0.00,,,0.01,,2013-04-02 16:53:00,
2013-04-02 13:05:00,35.0,12.0,29.94,NW,326,5.0,18.0,38,0.00,,,0.01,,2013-04-02 17:05:00,
2013-04-02 13:13:00,35.0,12.0,29.94,NW,326,5.0,18.0,38,0.00,,,0.01,,2013-04-02 17:13:00,
2013-04-02 13:25:00,36.0,12.0,29.93,WNW,284,7.0,18.0,36,0.00,,,0.01,,2013-04-02 17:25:00,
2013-04-02 13:34:00,37.0,13.0,29.93,North,5,11.0,20.0,36,0.00,,,0.01,,2013-04-02 17:34:00,
2013-04-02 13:43:00,37.0,13.0,29.93,North,5,11.0,20.0,36,0.00,,,0.01,,2013-04-02 17:43:00,
2013-04-02 13:56:00,38.0,13.0,29.93,West,267,4.0,10.0,35,0.00,,,0.01,,2013-04-02 17:56:00,
2013-04-02 14:04:00,37.0,13.0,29.93,WNW,294,8.0,23.0,36,0.00,,,0.01,,2013-04-02 18:04:00,
2013-04-02 14:12:00,37.0,13.0,29.93,WNW,294,8.0,23.0,36,0.00,,,0.01,,2013-04-02 18:12:00,
2013-04-02 14:23:00,37.0,12.0,29.92,North,5,6.0,17.0,35,0.00,,,0.01,,2013-04-02 18:23:00,
2013-04-02 14:34:00,38.0,12.0,29.92,NW,317,8.0,19.0,34,0.00,,,0.01,,2013-04-02 18:34:00,
2013-04-02 14:43:00,38.0,12.0,29.92,NW,317,8.0,19.0,34,0.00,,,0.01,,2013-04-02 18:43:00,
2013-04-02 14:57:00,38.0,11.0,29.92,West,275,8.0,18.0,32,0.00,,,0.01,,2013-04-02 18:57:00,
2013-04-02 15:03:00,38.0,13.0,29.92,WNW,286,2.0,16.0,35,0.00,,,0.01,,2013-04-02 19:03:00,
2013-04-02 15:13:00,38.0,13.0,29.92,WNW,286,2.0,16.0,35,0.00,,,0.01,,2013-04-02 19:13:00,
2013-04-02 15:23:00,39.0,12.0,29.92,NNE,12,10.0,19.0,33,0.00,,,0.01,,2013-04-02 19:23:00,
2013-04-02 15:34:00,39.0,12.0,29.91,NW,323,3.0,20.0,32,0.00,,,0.01,,2013-04-02 19:34:00,
2013-04-02 15:45:00,39.0,12.0,29.91,NW,323,3.0,20.0,32,0.00,,,0.01,,2013-04-02 19:45:00,
2013-04-02 15:57:00,39.0,11.0,29.91,WNW,291,5.0,18.0,31,0.00,,,0.01,,2013-04-02 19:57:00,
2013-04-02 16:03:00,38.0,10.0,29.90,NW,321,9.0,17.0,31,0.00,,,0.01,,2013-04-02 20:03:00,
2013-04-02 16:33:00,38.0,11.0,29.90,NNW,329,6.0,17.0,32,0.00,,,0.01,,2013-04-02 20:33:00,
2013-04-02 16:44:00,38.0,11.0,29.90,NNW,329,6.0,17.0,32,0.00,,,0.01,,2013-04-02 20:44:00,
2013-04-02 16:55:00,38.0,11.0,29.90,NNW,329,6.0,17.0,32,0.00,,,0.01,,2013-04-02 20:55:00,
2013-04-02 17:04:00,39.0,11.0,29.91,NE,40,10.0,19.0,31,0.00,,,0.01,,2013-04-02 21:04:00,
2013-04-02 17:13:00,39.0,11.0,29.91,NE,40,10.0,19.0,31,0.00,,,0.01,,2013-04-02 21:13:00,
2013-04-02 17:23:00,39.0,10.0,29.91,NW,314,8.0,15.0,30,0.00,,,0.01,,2013-04-02 21:23:00,
2013-04-02 17:34:00,39.0,10.0,29.92,NW,309,6.0,16.0,30,0.00,,,0.00,,2013-04-02 21:34:00,
2013-04-02 17:44:00,39.0,10.0,29.92,NW,309,6.0,16.0,30,0.00,,,0.00,,2013-04-02 21:44:00,
2013-04-02 17:56:00,39.0,11.0,29.92,WSW,243,6.0,19.0,31,0.00,,,0.00,,2013-04-02 21:56:00,
2013-04-02 18:04:00,38.0,10.0,29.92,WNW,291,4.0,18.0,31,0.00,,,0.00,,2013-04-02 22:04:00,
2013-04-02 18:14:00,38.0,10.0,29.92,WNW,291,4.0,18.0,31,0.00,,,0.00,,2013-04-02 22:14:00,
2013-04-02 18:24:00,39.0,11.0,29.93,NNW,340,4.0,14.0,31,0.00,,,0.00,,2013-04-02 22:24:00,
2013-04-02 18:33:00,39.0,10.0,29.93,NW,306,3.0,13.0,30,0.00,,,0.00,,2013-04-02 22:33:00,
2013-04-02 18:43:00,39.0,10.0,29.93,NW,306,3.0,13.0,30,0.00,,,0.00,,2013-04-02 22:43:00,
2013-04-02 18:54:00,38.0,10.0,29.93,NW,317,5.0,12.0,31,0.00,,,0.00,,2013-04-02 22:54:00,
2013-04-02 19:03:00,38.0,10.0,29.94,WNW,299,3.0,14.0,31,0.00,,,0.00,,2013-04-02 23:03:00,
2013-04-02 19:13:00,38.0,11.0,29.94,NW,315,3.0,10.0,32,0.00,,,0.00,,2013-04-02 23:13:00,
2013-04-02 19:23:00,38.0,11.0,29.94,NW,315,3.0,10.0,32,0.00,,,0.00,,2013-04-02 23:23:00,
2013-04-02 19:35:00,38.0,11.0,29.95,WNW,302,2.0,13.0,32,0.00,,,0.00,,2013-04-02 23:35:00,
2013-04-02 19:43:00,38.0,11.0,29.95,WNW,302,2.0,13.0,32,0.00,,,0.00,,2013-04-02 23:43:00,
2013-04-02 19:54:00,37.0,10.0,29.95,NW,325,5.0,12.0,32,0.00,,,0.00,,2013-04-02 23:54:00,
2013-04-02 20:04:00,37.0,11.0,29.95,West,279,3.0,12.0,33,0.00,,,0.00,,2013-04-03 00:04:00,
2013-04-02 20:13:00,37.0,11.0,29.95,West,279,3.0,12.0,33,0.00,,,0.00,,2013-04-03 00:13:00,
2013-04-02 20:33:00,36.0,11.0,29.97,WNW,298,4.0,13.0,35,0.00,,,0.00,,2013-04-03 00:33:00,
2013-04-02 20:47:00,36.0,11.0,29.97,WNW,298,4.0,13.0,35,0.00,,,0.00,,2013-04-03 00:47:00,
2013-04-02 21:04:00,36.0,12.0,29.98,WNW,288,4.0,10.0,36,0.00,,,0.00,,2013-04-03 01:04:00,
2013-04-02 21:12:00,36.0,12.0,29.98,WNW,288,4.0,10.0,36,0.00,,,0.00,,2013-04-03 01:12:00,
2013-04-02 21:23:00,36.0,12.0,29.98,West,281,3.0,9.0,36,0.00,,,0.00,,2013-04-03 01:23:00,
2013-04-02 21:33:00,36.0,12.0,29.99,WNW,300,1.0,12.0,36,0.00,,,0.00,,2013-04-03 01:33:00,
2013-04-02 21:42:00,36.0,12.0,29.99,WNW,300,1.0,12.0,36,0.00,,,0.00,,2013-04-03 01:42:00,
2013-04-02 21:53:00,35.0,11.0,29.99,NNW,345,5.0,9.0,37,0.00,,,0.00,,2013-04-03 01:53:00,
2013-04-02 22:03:00,35.0,13.0,30.00,West,278,2.0,7.0,39,0.00,,,0.00,,2013-04-03 02:03:00,
2013-04-02 22:13:00,35.0,13.0,30.00,West,278,2.0,7.0,39,0.00,,,0.00,,2013-04-03 02:13:00,
2013-04-02 22:24:00,35.0,12.0,30.00,NW,315,4.0,8.0,38,0.00,,,0.00,,2013-04-03 02:24:00,
2013-04-02 22:34:00,34.0,12.0,30.00,WSW,257,1.0,7.0,39,0.00,,,0.00,,2013-04-03 02:34:00,
2013-04-02 22:43:00,34.0,12.0,30.00,WSW,257,1.0,7.0,39,0.00,,,0.00,,2013-04-03 02:43:00,
2013-04-02 22:53:00,34.0,12.0,30.00,WNW,295,1.0,8.0,39,0.00,,,0.00,,2013-04-03 02:53:00,
2013-04-02 23:05:00,34.0,12.0,30.01,WNW,282,1.0,5.0,40,0.00,,,0.00,,2013-04-03 03:05:00,
2013-04-02 23:14:00,34.0,12.0,30.01,WNW,282,1.0,5.0,40,0.00,,,0.00,,2013-04-03 03:14:00,
2013-04-02 23:23:00,34.0,12.0,30.02,NW,326,6.0,16.0,40,0.00,,,0.00,,2013-04-03 03:23:00,
2013-04-02 23:37:00,33.0,11.0,30.03,NW,323,6.0,17.0,40,0.00,,,0.00,,2013-04-03 03:37:00,
2013-04-02 23:44:00,33.0,11.0,30.03,NW,323,6.0,17.0,40,0.00,,,0.00,,2013-04-03 03:44:00,
2013-04-02 23:54:00,32.0,11.0,30.03,NW,308,3.0,13.0,41,0.00,,,0.00,,2013-04-03 03:54:00,